createdAt,value
2019-02-03T00:01:18.082Z,20.17
2019-02-03T00:03:46.432Z,20.63
2019-02-03T00:06:14.787Z,19.63
2019-02-03T00:08:43.063Z,19.53
2019-02-03T00:11:11.399Z,17.87
2019-02-03T00:13:39.680Z,19.03
2019-02-03T00:16:08.111Z,19.10
2019-02-03T00:18:36.659Z,16.63
2019-02-03T00:21:05.176Z,16.77
2019-02-03T00:23:33.547Z,15.07
2019-02-03T00:26:02.220Z,15.80
2019-02-03T00:28:30.519Z,15.07
2019-02-03T00:30:58.815Z,14.70
2019-02-03T00:33:27.157Z,14.30
2019-02-03T00:35:55.523Z,15.60
2019-02-03T00:38:25.885Z,19.30
2019-02-03T00:40:53.826Z,14.87
2019-02-03T00:43:22.145Z,15.23
2019-02-03T00:45:50.389Z,15.53
2019-02-03T00:48:18.693Z,15.40
2019-02-03T00:50:47.144Z,15.47
2019-02-03T00:53:15.445Z,15.40
2019-02-03T00:55:43.779Z,16.63
2019-02-03T00:58:12.053Z,16.03
2019-02-03T01:00:40.410Z,15.17
2019-02-03T01:03:08.791Z,14.43
2019-02-03T01:05:37.319Z,14.70
2019-02-03T01:08:06.537Z,15.17
2019-02-03T01:10:34.812Z,15.37
2019-02-03T01:13:03.199Z,16.40
2019-02-03T01:15:32.448Z,18.37
2019-02-03T01:18:01.011Z,16.03
2019-02-03T01:20:29.323Z,17.70
2019-02-03T01:22:57.712Z,20.20
2019-02-03T01:25:26.201Z,20.07
2019-02-03T01:27:54.509Z,21.63
2019-02-03T01:30:23.933Z,20.43
2019-02-03T01:32:52.224Z,20.40
2019-02-03T01:35:20.527Z,21.47
2019-02-03T01:37:48.818Z,21.23
2019-02-03T01:40:20.874Z,20.40
2019-02-03T01:42:49.259Z,20.30
2019-02-03T01:45:21.915Z,21.07
2019-02-03T01:47:50.200Z,22.40
2019-02-03T01:50:18.546Z,20.90
2019-02-03T01:52:46.904Z,21.37
2019-02-03T01:55:21.207Z,21.87
2019-02-03T01:57:49.465Z,20.60
2019-02-03T02:00:20.558Z,20.00
2019-02-03T02:02:48.859Z,19.00
2019-02-03T02:05:17.430Z,20.50
2019-02-03T02:07:51.862Z,20.60
2019-02-03T02:10:18.800Z,20.93
2019-02-03T02:12:47.159Z,19.80
2019-02-03T02:15:17.484Z,20.97
2019-02-03T02:17:45.972Z,21.37
2019-02-03T02:20:19.306Z,20.23
2019-02-03T02:22:47.650Z,19.77
2019-02-03T02:25:16.039Z,21.50
2019-02-03T02:27:44.330Z,20.00
2019-02-03T02:30:15.468Z,19.67
2019-02-03T02:32:43.756Z,19.57
2019-02-03T02:35:12.630Z,18.47
2019-02-03T02:37:41.014Z,19.73
2019-02-03T02:40:17.929Z,19.93
2019-02-03T02:42:46.403Z,20.13
2019-02-03T02:45:15.701Z,20.37
2019-02-03T02:47:44.044Z,20.70
2019-02-03T02:50:15.359Z,21.03
2019-02-03T02:52:43.738Z,22.10
2019-02-03T02:55:12.101Z,23.10
2019-02-03T02:57:40.444Z,22.10
2019-02-03T03:00:12.127Z,23.60
2019-02-03T03:02:40.431Z,21.80
2019-02-03T03:05:09.941Z,22.00
2019-02-03T03:07:38.322Z,23.07
2019-02-03T03:10:09.335Z,24.10
2019-02-03T03:12:37.921Z,25.53
2019-02-03T03:15:09.894Z,27.70
2019-02-03T03:17:38.192Z,27.10
2019-02-03T03:20:09.071Z,27.43
2019-02-03T03:22:37.452Z,26.37
2019-02-03T03:25:09.456Z,28.87
2019-02-03T03:27:37.921Z,28.37
2019-02-03T03:30:09.571Z,27.27
2019-02-03T03:32:37.940Z,26.80
2019-02-03T03:35:06.869Z,27.07
2019-02-03T03:37:35.134Z,26.33
2019-02-03T03:40:05.611Z,27.70
2019-02-03T03:42:33.914Z,27.17
2019-02-03T03:45:02.256Z,27.43
2019-02-03T03:47:30.574Z,25.37
2019-02-03T03:49:58.853Z,27.10
2019-02-03T03:52:27.227Z,27.00
2019-02-03T03:54:55.528Z,25.93
2019-02-03T03:57:23.797Z,25.53
2019-02-03T03:59:52.140Z,27.37
2019-02-03T04:02:20.424Z,23.77
2019-02-03T04:04:48.719Z,27.07
2019-02-03T04:07:17.007Z,25.90
2019-02-03T04:09:45.267Z,24.60
2019-02-03T04:12:13.549Z,27.43
2019-02-03T04:14:41.943Z,26.50
2019-02-03T04:17:10.218Z,27.67
2019-02-03T04:19:38.525Z,27.70
2019-02-03T04:22:06.889Z,27.87
2019-02-03T04:24:35.186Z,26.83
2019-02-03T04:27:03.606Z,28.13
2019-02-03T04:29:31.893Z,26.67
2019-02-03T04:32:00.168Z,25.20
2019-02-03T04:34:29.979Z,26.20
2019-02-03T04:36:58.309Z,26.07
2019-02-03T04:39:26.680Z,23.00
2019-02-03T04:41:55.162Z,25.30
2019-02-03T04:44:23.435Z,24.57
2019-02-03T04:46:51.734Z,25.23
2019-02-03T04:49:20.052Z,24.50
2019-02-03T04:51:48.329Z,26.20
2019-02-03T04:54:16.630Z,25.13
2019-02-03T04:56:44.924Z,24.97
2019-02-03T04:59:13.195Z,24.80
2019-02-03T05:01:41.469Z,23.07
2019-02-03T05:04:09.725Z,23.23
2019-02-03T05:06:38.004Z,23.80
2019-02-03T05:09:11.147Z,23.70
2019-02-03T05:11:37.375Z,23.70
2019-02-03T05:14:05.883Z,25.57
2019-02-03T05:16:34.180Z,22.60
2019-02-03T05:19:02.522Z,22.90
2019-02-03T05:21:30.789Z,22.63
2019-02-03T05:23:59.058Z,20.87
2019-02-03T05:26:27.321Z,21.97
2019-02-03T05:28:55.594Z,21.57
2019-02-03T05:31:23.858Z,21.17
2019-02-03T05:33:52.123Z,21.00
2019-02-03T05:36:20.377Z,24.03
2019-02-03T05:38:50.364Z,21.17
2019-02-03T05:41:18.649Z,21.47
2019-02-03T05:43:46.906Z,20.17
2019-02-03T05:46:15.192Z,21.33
2019-02-03T05:48:43.645Z,23.23
2019-02-03T05:51:11.937Z,22.00
2019-02-03T05:53:40.227Z,21.47
2019-02-03T05:56:08.497Z,20.00
2019-02-03T05:58:36.786Z,22.77
2019-02-03T06:01:05.059Z,22.67
2019-02-03T06:03:33.348Z,22.10
2019-02-03T06:06:01.757Z,22.00
2019-02-03T06:08:30.025Z,22.80
2019-02-03T06:10:58.321Z,21.30
2019-02-03T06:13:26.640Z,20.87
2019-02-03T06:15:54.922Z,23.30
2019-02-03T06:18:23.209Z,21.33
2019-02-03T06:20:51.483Z,20.53
2019-02-03T06:23:19.733Z,21.43
2019-02-03T06:25:48.021Z,22.40
2019-02-03T06:28:16.266Z,20.77
2019-02-03T06:30:56.629Z,21.20
2019-02-03T06:33:25.433Z,20.47
2019-02-03T06:35:53.770Z,20.80
2019-02-03T06:38:22.026Z,21.73
2019-02-03T06:40:50.393Z,21.10
2019-02-03T06:43:18.674Z,20.97
2019-02-03T06:45:48.597Z,21.40
2019-02-03T06:48:27.272Z,21.30
2019-02-03T06:50:55.534Z,22.87
2019-02-03T06:53:23.812Z,20.90
2019-02-03T06:55:52.077Z,21.47
2019-02-03T06:58:20.331Z,19.97
2019-02-03T07:00:48.588Z,20.30
2019-02-03T07:03:16.870Z,19.77
2019-02-03T07:05:45.162Z,21.07
2019-02-03T07:08:13.440Z,19.97
2019-02-03T07:10:41.738Z,19.90
2019-02-03T07:13:09.968Z,20.20
2019-02-03T07:15:38.230Z,19.70
2019-02-03T07:18:06.865Z,20.47
2019-02-03T07:20:35.145Z,18.80
2019-02-03T07:23:03.509Z,20.30
2019-02-03T07:25:31.744Z,19.77
2019-02-03T07:28:00.029Z,20.57
2019-02-03T07:30:28.312Z,17.93
2019-02-03T07:32:56.589Z,19.00
2019-02-03T07:35:24.863Z,19.60
2019-02-03T07:37:53.137Z,18.33
2019-02-03T07:40:21.943Z,17.43
2019-02-03T07:42:50.286Z,19.23
2019-02-03T07:45:18.553Z,17.80
2019-02-03T07:47:46.826Z,18.37
2019-02-03T07:50:16.230Z,16.73
2019-02-03T07:52:44.508Z,18.30
2019-02-03T07:55:13.815Z,19.33
2019-02-03T07:57:42.083Z,18.13
2019-02-03T08:00:18.948Z,18.93
2019-02-03T08:02:47.338Z,18.33
2019-02-03T08:05:15.792Z,19.00
2019-02-03T08:07:44.054Z,19.07
2019-02-03T08:10:24.473Z,19.07
2019-02-03T08:12:44.800Z,17.47
2019-02-03T08:15:15.046Z,17.97
2019-02-03T08:17:43.386Z,18.57
2019-02-03T08:20:14.966Z,18.37
2019-02-03T08:22:43.242Z,16.60
2019-02-03T08:25:13.970Z,17.60
2019-02-03T08:27:42.256Z,19.70
2019-02-03T08:30:13.681Z,20.47
2019-02-03T08:32:42.086Z,18.53
2019-02-03T08:35:10.464Z,19.17
2019-02-03T08:37:38.843Z,19.17
2019-02-03T08:40:37.147Z,17.33
2019-02-03T08:43:03.949Z,16.73
2019-02-03T08:45:32.210Z,16.93
2019-02-03T08:48:00.550Z,17.10
2019-02-03T08:50:28.876Z,17.17
2019-02-03T08:52:57.415Z,18.57
2019-02-03T08:55:25.712Z,16.47
2019-02-03T08:57:53.965Z,16.83
2019-02-03T09:00:24.914Z,17.13
2019-02-03T09:02:53.236Z,16.97
2019-02-03T09:05:21.692Z,15.90
2019-02-03T09:07:50.034Z,17.27
2019-02-03T09:10:23.116Z,16.60
2019-02-03T09:12:51.514Z,17.70
2019-02-03T09:15:22.416Z,17.27
2019-02-03T09:17:50.926Z,17.97
2019-02-03T09:20:25.185Z,19.10
2019-02-03T09:22:53.534Z,16.30
2019-02-03T09:25:22.014Z,19.43
2019-02-03T09:27:50.335Z,16.13
2019-02-03T09:30:21.231Z,17.23
2019-02-03T09:32:49.588Z,16.17
2019-02-03T09:35:17.860Z,17.87
2019-02-03T09:37:46.288Z,17.97
2019-02-03T09:40:20.839Z,17.87
2019-02-03T09:42:49.195Z,16.00
2019-02-03T09:45:22.508Z,17.20
2019-02-03T09:47:50.742Z,18.10
2019-02-03T09:50:26.943Z,17.03
2019-02-03T09:52:56.563Z,17.60
2019-02-03T09:55:24.983Z,18.70
2019-02-03T09:57:53.247Z,17.50
2019-02-03T10:00:24.150Z,17.60
2019-02-03T10:02:52.875Z,17.60
2019-02-03T10:05:21.278Z,17.23
2019-02-03T10:07:49.569Z,16.40
2019-02-03T10:10:24.095Z,17.67
2019-02-03T10:12:52.370Z,17.87
2019-02-03T10:15:20.634Z,18.50
2019-02-03T10:17:48.986Z,19.50
2019-02-03T10:20:22.440Z,18.93
2019-02-03T10:22:51.168Z,18.10
2019-02-03T10:25:22.058Z,17.37
2019-02-03T10:27:50.492Z,18.40
2019-02-03T10:30:20.699Z,18.80
2019-02-03T10:32:49.789Z,17.50
2019-02-03T10:35:23.547Z,18.23
2019-02-03T10:37:51.078Z,17.67
2019-02-03T10:40:24.902Z,18.47
2019-02-03T10:42:55.227Z,19.97
2019-02-03T10:45:24.537Z,20.17
2019-02-03T10:47:52.899Z,18.13
2019-02-03T10:50:26.697Z,18.40
2019-02-03T10:52:55.538Z,18.10
2019-02-03T10:55:24.676Z,18.83
2019-02-03T10:57:53.015Z,19.10
2019-02-03T11:00:26.562Z,18.07
2019-02-03T11:02:54.988Z,20.23
2019-02-03T11:05:28.985Z,18.30
2019-02-03T11:07:57.641Z,19.60
2019-02-03T11:10:27.665Z,18.03
2019-02-03T11:12:56.204Z,18.77
2019-02-03T11:15:25.024Z,18.70
2019-02-03T11:17:53.740Z,18.90
2019-02-03T11:20:27.043Z,20.10
2019-02-03T11:22:55.921Z,18.03
2019-02-03T11:25:25.261Z,16.87
2019-02-03T11:27:53.583Z,18.40
2019-02-03T11:30:27.124Z,17.33
2019-02-03T11:33:05.108Z,18.70
2019-02-03T11:35:27.231Z,18.70
2019-02-03T11:37:56.124Z,19.50
2019-02-03T11:40:27.144Z,17.20
2019-02-03T11:42:55.638Z,19.57
2019-02-03T11:45:39.818Z,18.80
2019-02-03T11:48:32.272Z,16.57
2019-02-03T11:51:04.863Z,18.30
2019-02-03T11:53:33.169Z,18.30
2019-02-03T11:56:01.467Z,17.73
2019-02-03T11:58:30.081Z,17.70
2019-02-03T12:00:58.429Z,17.60
2019-02-03T12:03:26.918Z,16.60
2019-02-03T12:05:57.102Z,17.90
2019-02-03T12:08:25.458Z,17.20
2019-02-03T12:10:53.826Z,19.67
2019-02-03T12:13:22.106Z,18.23
2019-02-03T12:15:50.464Z,18.57
2019-02-03T12:18:18.743Z,19.13
2019-02-03T12:20:47.026Z,18.77
2019-02-03T12:23:15.317Z,18.33
2019-02-03T12:25:44.077Z,17.43
2019-02-03T12:28:12.501Z,19.07
2019-02-03T12:30:40.967Z,17.87
2019-02-03T12:33:09.304Z,18.90
2019-02-03T12:35:39.248Z,19.53
2019-02-03T12:38:07.909Z,19.67
2019-02-03T12:40:38.592Z,19.87
2019-02-03T12:43:07.177Z,16.30
2019-02-03T12:45:35.937Z,16.10
2019-02-03T12:48:05.608Z,19.37
2019-02-03T12:50:33.983Z,17.90
2019-02-03T12:53:02.376Z,18.30
2019-02-03T12:55:32.194Z,17.80
2019-02-03T12:58:00.473Z,18.07
2019-02-03T13:00:32.036Z,20.67
2019-02-03T13:03:00.443Z,20.13
2019-02-03T13:05:29.471Z,19.77
2019-02-03T13:07:59.522Z,20.50
2019-02-03T13:10:30.453Z,18.97
2019-02-03T13:12:58.764Z,18.90
2019-02-03T13:15:30.060Z,19.60
2019-02-03T13:17:58.412Z,18.57
2019-02-03T13:20:29.410Z,17.50
2019-02-03T13:22:58.048Z,18.77
2019-02-03T13:25:26.418Z,17.40
2019-02-03T13:27:54.775Z,17.90
2019-02-03T13:30:28.663Z,17.27
2019-02-03T13:32:56.921Z,18.23
2019-02-03T13:35:25.499Z,17.40
2019-02-03T13:37:55.511Z,16.20
2019-02-03T13:40:24.334Z,19.20
2019-02-03T13:42:52.901Z,18.23
2019-02-03T13:45:26.006Z,19.47
2019-02-03T13:47:57.112Z,17.43
2019-02-03T13:50:27.418Z,18.07
2019-02-03T13:52:56.984Z,18.00
2019-02-03T13:55:26.365Z,18.73
2019-02-03T13:57:55.030Z,18.00
2019-02-03T14:00:32.649Z,16.90
2019-02-03T14:03:00.994Z,17.37
2019-02-03T14:05:29.287Z,14.13
2019-02-03T14:07:57.646Z,16.07
2019-02-03T14:10:31.346Z,14.60
2019-02-03T14:13:00.269Z,16.13
2019-02-03T14:15:28.616Z,14.87
2019-02-03T14:17:56.956Z,13.73
2019-02-03T14:20:27.736Z,13.57
2019-02-03T14:22:56.793Z,12.83
2019-02-03T14:25:25.697Z,13.10
2019-02-03T14:27:54.041Z,12.73
2019-02-03T14:30:39.158Z,12.10
2019-02-03T14:32:58.580Z,11.20
2019-02-03T14:35:27.115Z,10.20
2019-02-03T14:37:55.496Z,10.23
2019-02-03T14:40:24.572Z,10.40
2019-02-03T14:43:01.098Z,9.50
2019-02-03T14:45:25.462Z,10.80
2019-02-03T14:47:53.817Z,9.90
2019-02-03T14:50:24.802Z,10.23
2019-02-03T14:52:56.021Z,9.27
2019-02-03T14:55:30.226Z,10.20
2019-02-03T14:57:58.514Z,8.00
2019-02-03T15:00:35.786Z,7.90
2019-02-03T15:03:07.189Z,7.20
2019-02-03T15:05:35.492Z,6.93
2019-02-03T15:08:04.047Z,7.00
2019-02-03T15:10:32.311Z,9.83
2019-02-03T15:13:00.709Z,7.47
2019-02-03T15:15:30.132Z,8.00
2019-02-03T15:17:59.074Z,7.33
2019-02-03T15:20:28.139Z,7.30
2019-02-03T15:22:56.536Z,7.63
2019-02-03T15:25:28.102Z,8.70
2019-02-03T15:27:58.119Z,6.33
2019-02-03T15:30:41.887Z,8.40
2019-02-03T15:33:10.273Z,7.57
2019-02-03T15:35:38.724Z,7.13
2019-02-03T15:38:07.815Z,7.53
2019-02-03T15:40:36.150Z,7.37
2019-02-03T15:43:04.945Z,6.67
2019-02-03T15:45:33.316Z,5.50
2019-02-03T15:48:01.568Z,6.17
2019-02-03T15:50:30.897Z,6.17
2019-02-03T15:52:59.237Z,6.13
2019-02-03T15:55:30.295Z,6.10
2019-02-03T15:57:58.758Z,6.07
2019-02-03T16:00:32.218Z,5.93
2019-02-03T16:03:00.508Z,5.63
2019-02-03T16:05:28.843Z,5.17
2019-02-03T16:07:57.140Z,7.90
2019-02-03T16:10:26.917Z,6.63
2019-02-03T16:12:55.182Z,5.20
2019-02-03T16:15:23.630Z,4.90
2019-02-03T16:17:51.869Z,5.20
2019-02-03T16:20:25.272Z,6.10
2019-02-03T16:22:53.665Z,5.83
2019-02-03T16:25:22.581Z,5.37
2019-02-03T16:27:50.945Z,4.27
2019-02-03T16:30:35.057Z,4.13
2019-02-03T16:33:03.673Z,4.20
2019-02-03T16:35:31.958Z,4.20
2019-02-03T16:38:00.395Z,5.73
2019-02-03T16:40:30.977Z,5.10
2019-02-03T16:42:59.440Z,5.30
2019-02-03T16:45:27.767Z,4.87
2019-02-03T16:47:56.050Z,4.37
2019-02-03T16:50:29.523Z,4.17
2019-02-03T16:52:59.176Z,3.80
2019-02-03T16:55:27.530Z,3.60
2019-02-03T16:57:55.817Z,3.90
2019-02-03T17:00:28.981Z,3.77
2019-02-03T17:02:57.452Z,3.70
2019-02-03T17:05:30.211Z,3.50
2019-02-03T17:08:00.145Z,3.20
2019-02-03T17:10:28.507Z,2.93
2019-02-03T17:12:56.817Z,2.87
2019-02-03T17:15:27.932Z,3.27
2019-02-03T17:17:56.489Z,3.20
2019-02-03T17:20:24.798Z,3.83
2019-02-03T17:22:53.069Z,3.30
2019-02-03T17:25:39.616Z,4.50
2019-02-03T17:28:07.938Z,3.20
2019-02-03T17:30:36.280Z,4.07
2019-02-03T17:33:04.844Z,3.90
2019-02-03T17:35:33.481Z,3.27
2019-02-03T17:38:03.869Z,4.40
2019-02-03T17:40:32.226Z,4.53
2019-02-03T17:43:00.567Z,2.97
2019-02-03T17:45:28.894Z,3.30
2019-02-03T17:47:57.211Z,2.60
2019-02-03T17:50:28.994Z,3.10
2019-02-03T17:52:57.450Z,3.03
2019-02-03T17:55:25.802Z,2.77
2019-02-03T17:57:54.067Z,2.63
2019-02-03T18:00:26.591Z,3.30
2019-02-03T18:02:54.964Z,2.43
2019-02-03T18:05:23.756Z,2.73
2019-02-03T18:07:52.037Z,3.63
2019-02-03T18:10:21.880Z,3.40
2019-02-03T18:12:50.581Z,3.70
2019-02-03T18:15:19.139Z,5.27
2019-02-03T18:17:47.496Z,4.50
2019-02-03T18:20:21.596Z,4.90
2019-02-03T18:22:49.865Z,5.27
2019-02-03T18:25:18.207Z,4.30
2019-02-03T18:27:46.535Z,5.43
2019-02-03T18:30:17.939Z,7.83
2019-02-03T18:32:46.202Z,6.30
2019-02-03T18:35:15.401Z,5.13
2019-02-03T18:37:43.688Z,5.13
2019-02-03T18:40:14.685Z,6.27
2019-02-03T18:42:42.939Z,5.60
2019-02-03T18:45:13.867Z,6.60
2019-02-03T18:47:42.276Z,7.10
2019-02-03T18:50:13.183Z,13.83
2019-02-03T18:52:41.546Z,6.70
2019-02-03T18:55:13.391Z,6.17
2019-02-03T18:57:41.761Z,6.10
2019-02-03T19:00:21.472Z,5.70
2019-02-03T19:02:50.016Z,7.17
2019-02-03T19:05:23.756Z,5.43
2019-02-03T19:07:52.108Z,5.87
2019-02-03T19:10:22.737Z,6.30
2019-02-03T19:12:51.013Z,5.30
2019-02-03T19:15:20.335Z,5.67
2019-02-03T19:17:48.617Z,6.87
2019-02-03T19:20:25.379Z,5.30
2019-02-03T19:22:53.697Z,4.97
2019-02-03T19:25:22.034Z,6.50
2019-02-03T19:27:50.299Z,6.10
2019-02-03T19:30:20.505Z,5.40
2019-02-03T19:32:51.517Z,12.67
2019-02-03T19:35:28.692Z,7.57
2019-02-03T19:37:56.999Z,7.73
2019-02-03T19:40:27.987Z,6.50
2019-02-03T19:42:56.317Z,7.10
2019-02-03T19:45:27.293Z,7.53
2019-02-03T19:47:55.628Z,7.90
2019-02-03T19:50:29.357Z,12.07
2019-02-03T19:52:57.655Z,6.83
2019-02-03T19:55:26.019Z,7.00
2019-02-03T19:57:54.348Z,6.20
2019-02-03T20:00:24.982Z,6.40
2019-02-03T20:02:53.569Z,6.40
2019-02-03T20:05:21.929Z,6.83
2019-02-03T20:07:50.598Z,6.70
2019-02-03T20:10:24.384Z,8.57
2019-02-03T20:12:53.256Z,8.47
2019-02-03T20:15:21.596Z,6.67
2019-02-03T20:17:50.014Z,6.50
2019-02-03T20:20:21.482Z,6.30
2019-02-03T20:22:50.101Z,8.93
2019-02-03T20:25:20.959Z,8.80
2019-02-03T20:27:49.315Z,7.50
2019-02-03T20:30:19.751Z,6.40
2019-02-03T20:32:48.082Z,6.43
2019-02-03T20:35:18.379Z,7.00
2019-02-03T20:37:47.001Z,8.33
2019-02-03T20:40:21.078Z,7.60
2019-02-03T20:42:49.417Z,8.33
2019-02-03T20:45:21.077Z,6.97
2019-02-03T20:47:48.591Z,7.03
2019-02-03T20:50:21.718Z,5.90
2019-02-03T20:52:50.241Z,6.07
2019-02-03T20:55:20.302Z,5.87
2019-02-03T20:57:48.765Z,5.80
2019-02-03T21:00:25.956Z,5.87
2019-02-03T21:02:54.319Z,7.87
2019-02-03T21:05:22.609Z,5.83
2019-02-03T21:07:51.327Z,6.53
2019-02-03T21:10:22.022Z,5.77
2019-02-03T21:12:50.428Z,6.63
2019-02-03T21:15:20.625Z,6.20
2019-02-03T21:17:49.335Z,6.07
2019-02-03T21:20:23.279Z,7.37
2019-02-03T21:22:51.919Z,6.80
2019-02-03T21:25:20.879Z,7.50
2019-02-03T21:27:49.270Z,7.67
2019-02-03T21:30:20.160Z,7.50
2019-02-03T21:32:48.484Z,8.73
2019-02-03T21:35:17.056Z,6.70
2019-02-03T21:37:45.331Z,6.83
2019-02-03T21:40:22.169Z,7.50
2019-02-03T21:42:50.696Z,7.17
2019-02-03T21:45:21.775Z,6.40
2019-02-03T21:47:49.230Z,6.50
2019-02-03T21:50:20.395Z,6.10
2019-02-03T21:52:48.662Z,6.53
2019-02-03T21:55:19.047Z,6.63
2019-02-03T21:57:47.625Z,7.10
2019-02-03T22:00:21.840Z,7.30
2019-02-03T22:02:50.193Z,6.27
2019-02-03T22:05:18.715Z,7.33
2019-02-03T22:07:47.048Z,6.40
2019-02-03T22:10:20.833Z,6.20
2019-02-03T22:12:49.203Z,7.00
2019-02-03T22:15:17.886Z,6.80
2019-02-03T22:17:46.153Z,6.70
2019-02-03T22:20:17.126Z,8.10
2019-02-03T22:22:45.389Z,6.70
2019-02-03T22:25:13.931Z,6.70
2019-02-03T22:27:42.396Z,7.90
2019-02-03T22:30:14.128Z,8.07
2019-02-03T22:32:42.375Z,7.30
2019-02-03T22:35:10.912Z,8.30
2019-02-03T22:37:39.276Z,7.97
2019-02-03T22:40:10.744Z,8.23
2019-02-03T22:42:39.280Z,8.37
2019-02-03T22:45:10.666Z,8.23
2019-02-03T22:47:38.991Z,7.67
2019-02-03T22:50:13.224Z,8.00
2019-02-03T22:52:41.488Z,7.60
2019-02-03T22:55:11.349Z,7.97
2019-02-03T22:57:39.627Z,8.20
2019-02-03T23:00:51.926Z,7.47
2019-02-03T23:03:22.656Z,7.30
2019-02-03T23:05:51.180Z,8.10
2019-02-03T23:08:21.084Z,8.57
2019-02-03T23:10:49.724Z,8.37
2019-02-03T23:13:18.090Z,8.43
2019-02-03T23:15:46.720Z,8.30
2019-02-03T23:18:15.020Z,8.30
2019-02-03T23:20:43.300Z,8.20
2019-02-03T23:23:11.577Z,9.37
2019-02-03T23:25:39.864Z,8.93
2019-02-03T23:28:08.137Z,8.83
2019-02-03T23:30:36.439Z,8.93
2019-02-03T23:33:04.871Z,9.53
2019-02-03T23:35:33.200Z,8.23
2019-02-03T23:38:01.451Z,9.13
2019-02-03T23:40:29.734Z,8.93
2019-02-03T23:42:58.896Z,8.70
2019-02-03T23:45:27.455Z,8.17
2019-02-03T23:47:55.735Z,9.20
2019-02-03T23:50:24.130Z,9.63
2019-02-03T23:52:52.385Z,8.87
2019-02-03T23:55:20.693Z,8.13
2019-02-03T23:57:48.920Z,9.90
